Time;durP1;ratioP1;P1;durP2;ratioP2;P2;SDS_P1;SDS_P2;PMS_P1;PMS_P2;Temp;Humidity;BMP_temperature;BMP_pressure;BME280_temperature;BME280_humidity;BME280_pressure;Samples;Min_cycle;Max_cycle;Signal;HPM_P1;HPM_P2
2021/11/29 00:03:50;;;;;;;4.63;2.10;;;;;;;1.09;57.43;99864.88;8011036;28;20439;-66
2021/11/29 00:07:40;;;;;;;4.28;2.70;;;;;;;1.06;57.55;99869.34;8012849;28;20116;-66
2021/11/29 00:11:31;;;;;;;3.72;2.17;;;;;;;1.01;58.12;99864.38;8014156;28;20040;-66
2021/11/29 00:15:22;;;;;;;4.15;2.25;;;;;;;0.98;57.53;99864.50;8006916;28;20037;-67
2021/11/29 00:19:12;;;;;;;2.78;2.40;;;;;;;0.95;57.59;99878.44;8006019;28;20044;-67
2021/11/29 00:23:03;;;;;;;4.15;2.08;;;;;;;0.95;58.07;99873.25;8007993;28;20112;-67
2021/11/29 00:26:54;;;;;;;3.55;1.88;;;;;;;0.92;57.98;99863.00;8007066;28;20035;-67
2021/11/29 00:30:46;;;;;;;2.88;2.08;;;;;;;0.93;58.06;99871.63;8012776;28;20064;-67
2021/11/29 00:34:36;;;;;;;2.92;2.30;;;;;;;0.88;58.12;99871.81;8023098;28;20036;-67
2021/11/29 00:38:27;;;;;;;2.67;1.95;;;;;;;0.87;57.60;99880.50;8022362;28;20100;-67
2021/11/29 00:42:18;;;;;;;4.07;2.05;;;;;;;0.84;58.30;99883.16;8036771;28;20033;-66
2021/11/29 00:46:09;;;;;;;2.67;2.30;;;;;;;0.81;57.76;99888.47;8018950;28;20041;-67
2021/11/29 00:50:00;;;;;;;3.83;2.33;;;;;;;0.82;57.75;99892.72;8017965;28;20041;-67
2021/11/29 00:53:51;;;;;;;3.67;2.42;;;;;;;0.82;58.37;99904.81;8016229;28;20036;-66
2021/11/29 00:57:42;;;;;;;5.47;2.47;;;;;;;0.83;57.99;99901.34;8014072;28;20033;-66
2021/11/29 01:01:32;;;;;;;2.90;2.10;;;;;;;0.86;58.10;99920.19;8012183;28;20685;-66
2021/11/29 01:05:23;;;;;;;3.63;2.30;;;;;;;0.88;58.16;99920.94;8011416;28;20036;-66
2021/11/29 01:09:14;;;;;;;4.95;2.50;;;;;;;0.88;57.84;99926.09;8013453;28;20040;-66
2021/11/29 01:13:05;;;;;;;4.10;2.38;;;;;;;0.89;58.08;99921.78;8025756;28;20131;-65
2021/11/29 01:16:55;;;;;;;3.90;1.83;;;;;;;0.91;58.28;99923.41;8024473;28;20033;-66
2021/11/29 01:20:47;;;;;;;3.35;2.20;;;;;;;0.91;58.01;99925.16;8022626;28;20037;-66
2021/11/29 01:24:38;;;;;;;3.83;2.03;;;;;;;0.88;58.05;99917.53;8015636;28;20029;-66
2021/11/29 01:28:28;;;;;;;4.13;2.20;;;;;;;0.88;58.14;99927.88;8020122;28;20037;-66
2021/11/29 01:32:19;;;;;;;3.88;2.22;;;;;;;0.85;58.13;99928.78;8018009;28;20028;-66
2021/11/29 01:36:09;;;;;;;2.38;1.80;;;;;;;0.80;58.01;99932.47;8016366;28;20124;-66
2021/11/29 01:40:00;;;;;;;4.03;2.17;;;;;;;0.76;57.76;99939.50;8015273;28;20037;-65
2021/11/29 01:43:50;;;;;;;3.45;2.10;;;;;;;0.74;57.65;99941.31;8013897;28;20111;-65
2021/11/29 01:47:41;;;;;;;3.35;2.00;;;;;;;0.72;57.72;99942.28;8013348;28;20485;-66
2021/11/29 01:51:32;;;;;;;5.10;2.97;;;;;;;0.68;57.15;99941.56;8013557;28;20120;-65
2021/11/29 01:55:23;;;;;;;3.47;1.98;;;;;;;0.65;58.11;99946.84;8027550;28;20063;-66
2021/11/29 01:59:14;;;;;;;3.28;2.00;;;;;;;0.61;57.89;99950.47;8009617;28;20112;-65
2021/11/29 02:03:04;;;;;;;2.33;1.55;;;;;;;0.57;57.65;99954.91;8009154;28;20087;-66
2021/11/29 02:06:55;;;;;;;2.15;1.73;;;;;;;0.54;58.03;99965.41;8019609;28;20032;-66
2021/11/29 02:10:46;;;;;;;2.75;1.65;;;;;;;0.55;58.04;99977.38;8020217;28;20116;-66
2021/11/29 02:14:38;;;;;;;1.70;1.50;;;;;;;0.53;57.79;99980.94;8020395;28;20451;-66
2021/11/29 02:18:32;;;;;;;6.40;2.03;;;;;;;0.52;57.56;99977.50;8016432;28;20036;-66
2021/11/29 02:22:23;;;;;;;3.78;1.95;;;;;;;0.51;57.66;99977.56;8013391;28;20040;-66
2021/11/29 02:26:15;;;;;;;2.97;1.63;;;;;;;0.48;58.06;99975.94;8012263;28;20094;-65
2021/11/29 02:30:06;;;;;;;2.60;1.83;;;;;;;0.42;58.07;99968.44;8026935;28;20073;-66
2021/11/29 02:33:56;;;;;;;4.30;2.50;;;;;;;0.43;57.96;99977.88;8028338;28;20054;-65
2021/11/29 02:37:47;;;;;;;2.55;1.70;;;;;;;0.42;58.45;99965.03;8012533;28;20040;-65
2021/11/29 02:41:39;;;;;;;4.57;1.40;;;;;;;0.47;57.90;99968.25;8009533;28;20033;-65
2021/11/29 02:45:30;;;;;;;1.95;1.60;;;;;;;0.49;58.21;99972.47;8016228;28;20037;-66
2021/11/29 02:49:20;;;;;;;3.28;1.75;;;;;;;0.49;58.31;99967.31;8021221;28;20072;-65
2021/11/29 02:53:14;;;;;;;2.88;1.50;;;;;;;0.54;58.49;99967.13;8021325;28;20094;-65
2021/11/29 02:57:08;;;;;;;2.42;1.45;;;;;;;0.58;58.16;99964.38;8020176;28;20098;-66
2021/11/29 03:00:58;;;;;;;1.92;1.38;;;;;;;0.61;58.65;99963.41;8019154;28;20040;-66
2021/11/29 03:04:49;;;;;;;1.48;1.25;;;;;;;0.66;58.60;99971.81;8018080;28;20028;-66
2021/11/29 03:08:41;;;;;;;1.38;1.27;;;;;;;0.71;58.32;99974.22;8014702;28;20044;-65
2021/11/29 03:12:31;;;;;;;3.63;1.48;;;;;;;0.74;58.72;99976.69;8013535;28;20041;-65
2021/11/29 03:16:22;;;;;;;2.38;1.90;;;;;;;0.73;58.54;99973.25;8012711;28;20096;-65
2021/11/29 03:20:13;;;;;;;4.15;1.48;;;;;;;0.76;58.33;99973.13;8006911;28;20457;-65
2021/11/29 03:24:07;;;;;;;3.03;1.38;;;;;;;0.75;58.43;99976.63;8010642;28;20116;-66
2021/11/29 03:27:57;;;;;;;2.03;1.40;;;;;;;0.76;58.72;99982.63;8008147;28;20037;-65
2021/11/29 03:31:52;;;;;;;2.75;1.50;;;;;;;0.71;58.65;99988.00;8008261;28;20115;-65
2021/11/29 03:35:43;;;;;;;2.33;1.38;;;;;;;0.71;58.00;99982.81;8006546;28;20115;-66
2021/11/29 03:39:34;;;;;;;1.20;1.10;;;;;;;0.69;58.25;99994.09;8021345;28;20560;-65
2021/11/29 03:43:25;;;;;;;1.75;1.30;;;;;;;0.67;57.98;99996.78;8034943;28;20028;-66
2021/11/29 03:47:15;;;;;;;4.40;1.67;;;;;;;0.65;58.43;99998.56;8002324;28;20040;-65
2021/11/29 03:51:06;;;;;;;2.20;1.20;;;;;;;0.62;58.01;99998.69;8015524;28;20441;-65
2021/11/29 03:54:56;;;;;;;1.90;1.30;;;;;;;0.63;58.19;100002.97;8024057;28;20074;-66
2021/11/29 03:58:47;;;;;;;1.20;1.00;;;;;;;0.62;57.76;100005.59;8009887;28;20021;-65
2021/11/29 04:02:38;;;;;;;5.43;1.35;;;;;;;0.58;57.87;100012.63;8013228;28;20047;-66
2021/11/29 04:06:29;;;;;;;2.75;1.10;;;;;;;0.56;58.26;100012.69;8011295;28;20072;-66
2021/11/29 04:10:20;;;;;;;0.85;0.85;;;;;;;0.51;58.21;100006.84;8011099;28;20765;-65
2021/11/29 04:14:11;;;;;;;2.22;1.10;;;;;;;0.52;58.01;100020.59;8009691;28;20086;-66
2021/11/29 04:18:04;;;;;;;1.20;1.00;;;;;;;0.50;58.23;100025.00;8007334;28;20112;-66
2021/11/29 04:21:55;;;;;;;1.67;0.95;;;;;;;0.51;58.42;100037.00;8006633;28;20665;-65
2021/11/29 04:25:57;;;;;;;3.50;2.08;;;;;;;0.49;58.27;100034.50;8013199;28;20123;-66
2021/11/29 04:29:49;;;;;;;1.02;0.93;;;;;;;0.50;58.56;100035.34;8011585;28;20029;-66
2021/11/29 04:33:40;;;;;;;1.13;1.02;;;;;;;0.49;58.34;100036.22;8012067;28;20033;-65
2021/11/29 04:37:31;;;;;;;1.48;0.98;;;;;;;0.47;58.63;100033.69;8019404;28;20115;-66
2021/11/29 04:41:21;;;;;;;1.85;1.23;;;;;;;0.48;58.44;100050.03;8010883;28;20367;-65
2021/11/29 04:45:12;;;;;;;0.80;0.80;;;;;;;0.45;57.78;100045.00;8015644;28;20119;-65
2021/11/29 04:49:03;;;;;;;1.42;1.00;;;;;;;0.46;58.27;100047.53;8013230;28;20043;-65
2021/11/29 04:52:54;;;;;;;1.45;1.00;;;;;;;0.45;58.44;100047.59;8011973;28;20044;-65
2021/11/29 04:56:44;;;;;;;1.45;0.98;;;;;;;0.47;59.14;100058.69;8010198;28;20037;-66
2021/11/29 05:00:35;;;;;;;1.67;1.15;;;;;;;0.49;58.12;100072.41;8008707;28;20546;-65
2021/11/29 05:04:26;;;;;;;2.17;1.15;;;;;;;0.50;58.81;100074.09;8006850;28;20041;-66
2021/11/29 05:08:16;;;;;;;1.70;1.20;;;;;;;0.52;58.62;100061.94;8009151;28;20041;-66
2021/11/29 05:12:08;;;;;;;2.17;1.50;;;;;;;0.52;58.31;100064.53;8012978;28;20475;-66
2021/11/29 05:15:59;;;;;;;1.20;1.10;;;;;;;0.53;58.01;100068.81;8004788;28;20037;-66
2021/11/29 05:19:49;;;;;;;2.13;1.58;;;;;;;0.48;58.27;100081.06;8025944;28;20104;-66
2021/11/29 05:23:40;;;;;;;1.23;1.13;;;;;;;0.49;58.50;100087.91;8034961;28;20738;-66
2021/11/29 05:27:30;;;;;;;1.30;1.20;;;;;;;0.50;58.56;100092.19;8016225;28;20029;-66
2021/11/29 05:31:21;;;;;;;2.85;1.33;;;;;;;0.44;58.48;100080.34;8017814;28;20058;-66
2021/11/29 05:35:12;;;;;;;1.70;1.27;;;;;;;0.48;58.76;100092.25;8014099;28;20550;-66
2021/11/29 05:39:04;;;;;;;2.63;1.67;;;;;;;0.51;58.87;100096.44;8017795;28;20409;-65
2021/11/29 05:42:55;;;;;;;3.25;1.50;;;;;;;0.53;58.75;100099.81;8017433;28;20025;-65
2021/11/29 05:46:46;;;;;;;3.55;1.98;;;;;;;0.52;58.87;100104.16;8016461;28;20044;-65
2021/11/29 05:50:37;;;;;;;4.20;1.90;;;;;;;0.52;58.72;100111.91;8015285;28;20174;-66
2021/11/29 05:54:28;;;;;;;3.10;1.73;;;;;;;0.53;58.61;100115.34;8013762;28;20033;-65
2021/11/29 05:58:19;;;;;;;2.10;1.80;;;;;;;0.54;59.30;100123.03;8012706;28;20037;-66
2021/11/29 06:02:09;;;;;;;2.60;1.83;;;;;;;0.55;59.05;100121.28;8009976;28;20158;-65
2021/11/29 06:06:00;;;;;;;1.70;1.60;;;;;;;0.59;59.16;100138.34;8009015;28;20481;-65
2021/11/29 06:09:51;;;;;;;2.13;1.70;;;;;;;0.63;58.85;100131.34;8015382;28;20297;-65
2021/11/29 06:13:41;;;;;;;2.17;1.80;;;;;;;0.65;59.29;100147.63;8021271;28;20127;-65
2021/11/29 06:17:32;;;;;;;3.05;1.80;;;;;;;0.68;59.29;100147.50;8037137;28;20025;-66
2021/11/29 06:21:23;;;;;;;2.47;1.73;;;;;;;0.70;58.60;100156.91;8020647;28;20048;-66
2021/11/29 06:25:13;;;;;;;4.05;2.00;;;;;;;0.68;58.69;100145.78;8014415;28;20107;-65
2021/11/29 06:29:04;;;;;;;2.30;1.55;;;;;;;0.71;58.94;100150.00;8018027;28;20428;-66
2021/11/29 06:32:55;;;;;;;1.45;1.30;;;;;;;0.65;59.17;100134.72;8012974;28;20051;-65
2021/11/29 06:36:45;;;;;;;4.03;1.70;;;;;;;0.72;58.98;100136.16;8022258;28;20144;-66
2021/11/29 06:40:36;;;;;;;3.78;1.90;;;;;;;0.73;59.05;100138.69;8025546;28;20486;-65
2021/11/29 06:44:27;;;;;;;2.80;1.60;;;;;;;0.72;58.74;100149.94;8010295;28;20033;-65
2021/11/29 06:48:18;;;;;;;2.08;1.38;;;;;;;0.74;59.29;100150.72;8010524;28;20041;-66
2021/11/29 06:52:09;;;;;;;2.53;1.77;;;;;;;0.75;58.98;100157.59;8009402;28;20041;-66
2021/11/29 06:56:01;;;;;;;1.70;1.48;;;;;;;0.71;59.26;100156.03;8008903;28;20128;-65
2021/11/29 06:59:52;;;;;;;2.83;1.30;;;;;;;0.70;58.99;100162.09;8007370;28;20033;-65
2021/11/29 07:03:42;;;;;;;2.15;1.45;;;;;;;0.72;58.56;100169.78;8022956;28;20032;-66
2021/11/29 07:07:34;;;;;;;2.97;1.52;;;;;;;0.71;59.09;100175.88;8021249;28;20055;-66
2021/11/29 07:11:25;;;;;;;1.38;1.27;;;;;;;0.68;59.13;100181.13;8019569;28;20077;-66
2021/11/29 07:15:16;;;;;;;2.80;1.77;;;;;;;0.65;58.87;100176.91;8001971;28;20591;-66
2021/11/29 07:19:06;;;;;;;2.38;1.48;;;;;;;0.62;58.96;100184.78;8014232;28;20029;-65
2021/11/29 07:22:57;;;;;;;3.38;1.83;;;;;;;0.61;59.27;100177.09;8013738;28;20074;-66
2021/11/29 07:26:48;;;;;;;1.55;1.45;;;;;;;0.59;59.24;100179.72;8010376;28;20028;-65
2021/11/29 07:30:39;;;;;;;2.22;1.70;;;;;;;0.57;59.02;100189.28;8012286;28;20041;-65
2021/11/29 07:34:30;;;;;;;2.22;1.60;;;;;;;0.55;58.87;100191.91;8008478;28;20065;-65
2021/11/29 07:38:20;;;;;;;5.22;1.98;;;;;;;0.56;58.69;100192.75;8004782;28;20166;-65
2021/11/29 07:42:11;;;;;;;2.63;1.75;;;;;;;0.56;59.11;100195.34;8005864;28;20040;-65
2021/11/29 07:46:02;;;;;;;2.75;2.00;;;;;;;0.54;59.35;100185.06;8000477;28;20087;-66
2021/11/29 07:49:53;;;;;;;2.50;1.80;;;;;;;0.53;58.98;100203.22;8005785;28;20029;-65
2021/11/29 07:53:43;;;;;;;3.53;2.25;;;;;;;0.54;59.25;100208.34;8006344;28;20563;-65
2021/11/29 07:57:35;;;;;;;2.72;1.98;;;;;;;0.59;59.62;100213.31;8004969;28;20029;-65
2021/11/29 08:01:25;;;;;;;1.88;1.67;;;;;;;0.62;59.27;100209.78;8009282;28;20056;-66
2021/11/29 08:05:19;;;;;;;3.92;2.00;;;;;;;0.64;59.35;100218.31;8014213;28;20116;-66
2021/11/29 08:09:10;;;;;;;1.95;1.63;;;;;;;0.63;58.99;100222.69;8004473;28;20037;-65
2021/11/29 08:13:01;;;;;;;2.58;1.60;;;;;;;0.63;59.48;100221.81;8029369;28;20037;-65
2021/11/29 08:16:52;;;;;;;4.90;2.22;;;;;;;0.65;59.61;100231.19;8011561;28;20120;-65
2021/11/29 08:20:43;;;;;;;6.15;2.30;;;;;;;0.66;59.39;100232.06;8007567;28;20549;-66
2021/11/29 08:24:34;;;;;;;3.70;2.20;;;;;;;0.69;59.49;100234.53;8005602;28;20829;-66
2021/11/29 08:28:25;;;;;;;3.05;1.88;;;;;;;0.69;59.42;100226.75;8004768;28;20028;-65
2021/11/29 08:32:18;;;;;;;4.40;2.22;;;;;;;0.73;59.06;100244.69;8003438;28;20033;-66
2021/11/29 08:36:09;;;;;;;3.55;2.42;;;;;;;0.77;59.43;100246.28;8003632;28;20037;-66
2021/11/29 08:40:00;;;;;;;4.65;2.33;;;;;;;0.84;59.51;100247.75;8002206;28;20167;-66
2021/11/29 08:43:50;;;;;;;4.28;2.47;;;;;;;0.86;59.29;100239.94;8012561;28;20115;-66
2021/11/29 08:47:41;;;;;;;3.58;2.60;;;;;;;0.91;59.58;100236.31;8017509;28;20045;-66
2021/11/29 08:51:31;;;;;;;2.85;2.22;;;;;;;0.97;59.63;100240.41;8000727;28;20029;-66
2021/11/29 08:55:22;;;;;;;5.95;3.00;;;;;;;1.07;59.61;100248.69;8021156;28;20143;-66
2021/11/29 08:59:14;;;;;;;6.25;3.10;;;;;;;1.14;59.78;100255.31;8012093;28;20036;-66
2021/11/29 09:03:07;;;;;;;4.70;2.28;;;;;;;1.19;59.43;100256.84;8015034;28;20604;-65
2021/11/29 09:06:58;;;;;;;4.45;2.50;;;;;;;1.22;59.80;100253.28;8010906;28;20455;-66
2021/11/29 09:10:50;;;;;;;3.53;2.58;;;;;;;1.29;59.92;100267.72;8011284;28;20629;-66
2021/11/29 09:14:41;;;;;;;4.70;2.78;;;;;;;1.30;59.68;100262.44;8016498;28;20037;-66
2021/11/29 09:18:32;;;;;;;5.13;2.80;;;;;;;1.36;59.72;100269.16;8027931;28;20033;-66
2021/11/29 09:22:22;;;;;;;4.15;3.00;;;;;;;1.42;59.97;100277.53;8010870;28;20028;-66
2021/11/29 09:26:14;;;;;;;5.07;2.45;;;;;;;1.46;59.25;100288.59;8005938;28;20504;-66
2021/11/29 09:30:08;;;;;;;3.40;2.58;;;;;;;1.47;59.38;100293.72;8013693;28;20036;-66
2021/11/29 09:33:58;;;;;;;5.03;3.33;;;;;;;1.51;59.57;100304.81;8021691;28;20043;-66
2021/11/29 09:37:49;;;;;;;6.95;2.97;;;;;;;1.50;60.03;100301.38;8019269;28;20104;-66
2021/11/29 09:41:39;;;;;;;3.10;2.55;;;;;;;1.54;59.67;100309.03;8009565;28;20040;-66
2021/11/29 09:45:31;;;;;;;4.00;2.45;;;;;;;1.56;59.63;100315.84;8008941;28;20033;-66
2021/11/29 09:49:23;;;;;;;4.13;2.20;;;;;;;1.60;60.06;100329.50;8005647;28;20037;-66
2021/11/29 09:53:16;;;;;;;3.97;2.70;;;;;;;1.65;60.08;100325.84;8008970;28;20078;-66
2021/11/29 09:57:07;;;;;;;5.45;2.90;;;;;;;1.68;60.06;100322.28;8005302;28;20032;-66
2021/11/29 10:01:00;;;;;;;6.13;3.28;;;;;;;1.71;59.87;100312.66;8000591;28;20028;-66
2021/11/29 10:04:51;;;;;;;5.55;2.83;;;;;;;1.82;59.67;100327.81;8007565;28;20028;-66
2021/11/29 10:08:41;;;;;;;3.38;2.55;;;;;;;1.89;59.87;100324.06;8006925;28;20047;-66
2021/11/29 10:12:32;;;;;;;4.20;2.33;;;;;;;1.94;59.50;100324.72;8007576;28;20040;-66
2021/11/29 10:16:34;;;;;;;4.30;2.28;;;;;;;1.99;59.75;100322.81;8008142;28;20040;-66
2021/11/29 10:20:30;;;;;;;3.08;1.77;;;;;;;2.02;59.85;100327.88;8020490;28;20120;-66
2021/11/29 10:24:22;;;;;;;3.25;2.22;;;;;;;2.06;60.22;100332.03;8007833;28;20036;-66
2021/11/29 10:28:28;;;;;;;3.65;2.22;;;;;;;2.11;59.95;100321.47;8021115;28;20703;-66
2021/11/29 10:32:39;;;;;;;2.90;1.92;;;;;;;2.19;60.06;100327.19;8004724;28;20035;-66
2021/11/29 10:36:46;;;;;;;3.03;1.92;;;;;;;2.24;59.98;100327.88;8005945;28;20065;-66
2021/11/29 10:40:37;;;;;;;3.63;1.63;;;;;;;2.27;60.16;100326.00;8013548;28;20045;-66
2021/11/29 10:44:34;;;;;;;1.80;1.30;;;;;;;2.31;60.02;100331.88;8015214;28;20036;-66
2021/11/29 10:48:26;;;;;;;3.22;2.10;;;;;;;2.34;60.07;100339.53;8013027;28;20179;-66
2021/11/29 10:52:29;;;;;;;2.47;1.60;;;;;;;2.37;60.30;100331.66;8017278;28;20029;-66
2021/11/29 10:56:22;;;;;;;3.90;1.67;;;;;;;2.40;60.04;100347.91;8001595;28;20045;-65
2021/11/29 11:00:17;;;;;;;3.65;1.90;;;;;;;2.41;59.85;100354.78;8002727;28;20108;-66
2021/11/29 11:04:22;;;;;;;2.78;1.60;;;;;;;2.42;60.37;100360.81;8004200;28;20033;-66
2021/11/29 11:08:16;;;;;;;2.55;1.70;;;;;;;2.44;60.01;100353.81;8005140;28;20105;-66
2021/11/29 11:12:10;;;;;;;2.00;1.50;;;;;;;2.46;60.62;100372.72;8005483;28;20044;-66
2021/11/29 11:16:00;;;;;;;3.58;1.58;;;;;;;2.48;60.25;100370.09;8005350;28;20446;-66
2021/11/29 11:19:57;;;;;;;3.03;1.52;;;;;;;2.53;60.37;100370.75;8020573;28;20829;-66
2021/11/29 11:23:48;;;;;;;4.28;1.70;;;;;;;2.54;60.07;100373.25;8004301;28;20040;-66
2021/11/29 11:28:00;;;;;;;2.45;1.52;;;;;;;2.58;60.27;100377.41;8006554;28;20037;-66
2021/11/29 11:31:50;;;;;;;2.97;1.40;;;;;;;2.60;60.14;100377.38;8003296;28;20401;-66
2021/11/29 11:35:44;;;;;;;2.97;1.48;;;;;;;2.66;60.32;100384.91;8005168;28;20561;-66
2021/11/29 11:39:36;;;;;;;2.38;1.40;;;;;;;2.70;60.03;100389.06;8003795;28;20103;-66
2021/11/29 11:43:26;;;;;;;1.55;1.05;;;;;;;2.74;60.46;100382.84;8003382;28;20512;-66
2021/11/29 11:47:18;;;;;;;2.55;1.35;;;;;;;2.76;60.36;100393.97;8003139;28;20112;-66
2021/11/29 11:51:11;;;;;;;2.88;1.30;;;;;;;2.78;59.89;100398.22;8004965;28;20037;-66
2021/11/29 11:55:05;;;;;;;3.80;1.40;;;;;;;2.81;60.02;100394.66;8003408;28;20045;-66
2021/11/29 11:59:13;;;;;;;4.20;1.23;;;;;;;2.85;60.18;100414.38;8008153;28;20083;-66
2021/11/29 12:03:14;;;;;;;4.82;1.40;;;;;;;2.86;60.27;100410.88;8008442;28;20054;-66
2021/11/29 12:07:05;;;;;;;2.80;1.38;;;;;;;2.89;60.42;100409.00;8003097;28;20047;-66
2021/11/29 12:10:55;;;;;;;2.65;1.33;;;;;;;2.95;60.36;100412.25;8005924;28;20033;-66
2021/11/29 12:14:46;;;;;;;5.43;1.60;;;;;;;2.99;60.32;100416.41;8008409;28;20033;-66
2021/11/29 12:18:39;;;;;;;3.33;1.40;;;;;;;3.03;60.34;100420.53;8018913;28;20031;-66
2021/11/29 12:22:32;;;;;;;3.33;1.30;;;;;;;3.08;60.51;100423.75;8003780;28;20032;-66
2021/11/29 12:26:43;;;;;;;3.40;1.30;;;;;;;3.14;60.55;100431.31;8006204;28;20573;-65
2021/11/29 12:30:45;;;;;;;4.75;1.25;;;;;;;3.18;60.67;100427.69;7996960;28;20039;-66
2021/11/29 12:34:44;;;;;;;1.98;1.30;;;;;;;3.27;60.46;100435.06;8010483;28;20755;-66
2021/11/29 12:38:48;;;;;;;2.13;1.17;;;;;;;3.34;60.56;100429.59;8009255;28;20053;-66
2021/11/29 12:42:38;;;;;;;2.13;1.10;;;;;;;3.40;60.45;100430.25;8009370;28;20100;-66
2021/11/29 12:46:31;;;;;;;3.83;1.35;;;;;;;3.46;60.44;100424.75;8010461;28;20032;-66
2021/11/29 12:50:28;;;;;;;2.30;1.17;;;;;;;3.51;60.42;100426.25;8009087;28;20033;-66
2021/11/29 12:54:45;;;;;;;2.65;1.35;;;;;;;3.53;60.37;100432.22;8019584;28;20036;-66
2021/11/29 12:58:36;;;;;;;2.05;1.40;;;;;;;3.57;60.47;100430.34;8007288;28;20036;-66
2021/11/29 13:02:50;;;;;;;2.42;1.33;;;;;;;3.64;60.61;100443.00;8009818;28;20033;-66
2021/11/29 13:06:53;;;;;;;3.97;1.45;;;;;;;3.64;60.44;100440.41;8007785;28;20091;-66
2021/11/29 13:10:44;;;;;;;2.40;1.40;;;;;;;3.69;60.20;100446.25;8010425;28;20044;-66
2021/11/29 13:14:35;;;;;;;5.80;1.20;;;;;;;3.73;60.50;100454.75;8008641;28;20098;-66
2021/11/29 13:18:41;;;;;;;3.00;1.20;;;;;;;3.78;60.38;100452.75;8009163;28;20495;-66
2021/11/29 13:22:31;;;;;;;3.28;1.10;;;;;;;3.79;60.36;100455.28;8005375;28;20056;-66
2021/11/29 13:26:23;;;;;;;2.15;1.10;;;;;;;3.84;60.32;100459.44;8023330;28;20057;-66
2021/11/29 13:30:16;;;;;;;7.38;1.27;;;;;;;3.84;60.48;100452.50;8007078;28;20104;-66
2021/11/29 13:34:09;;;;;;;3.55;1.35;;;;;;;3.85;60.41;100459.38;8007902;28;20040;-66
2021/11/29 13:38:00;;;;;;;3.40;1.30;;;;;;;3.84;60.15;100465.47;8007185;28;20037;-66
2021/11/29 13:42:15;;;;;;;3.00;1.48;;;;;;;3.82;60.18;100468.13;8008575;28;20481;-66
2021/11/29 13:46:15;;;;;;;7.07;3.40;;;;;;;3.81;60.40;100478.63;8008675;28;20283;-66
2021/11/29 13:50:13;;;;;;;4.82;1.67;;;;;;;3.82;60.30;100469.06;8007607;28;20056;-66
2021/11/29 13:54:10;;;;;;;3.40;1.35;;;;;;;3.82;60.30;100479.47;8008262;28;20551;-66
2021/11/29 13:58:13;;;;;;;4.15;1.40;;;;;;;3.84;60.21;100488.03;8023833;28;20048;-66
2021/11/29 14:02:11;;;;;;;1.95;1.17;;;;;;;3.84;60.17;100488.03;8008396;28;20033;-66
2021/11/29 14:06:07;;;;;;;1.13;1.02;;;;;;;3.86;60.37;100497.47;8008174;28;20127;-66
2021/11/29 14:09:58;;;;;;;1.70;1.13;;;;;;;3.87;60.34;100506.91;8022958;28;20426;-66
2021/11/29 14:13:54;;;;;;;4.45;2.05;;;;;;;3.90;60.18;100503.38;8009167;28;20690;-66
2021/11/29 14:17:45;;;;;;;3.67;1.40;;;;;;;3.88;60.13;100511.22;8003663;28;20112;-66
2021/11/29 14:21:42;;;;;;;1.80;1.25;;;;;;;3.87;59.95;100525.09;8013749;28;20029;-66
2021/11/29 14:25:33;;;;;;;1.55;1.20;;;;;;;3.85;60.08;100528.69;8012367;28;20102;-66
2021/11/29 14:29:28;;;;;;;1.80;1.35;;;;;;;3.82;60.03;100543.50;8006119;28;20433;-66
2021/11/29 14:33:19;;;;;;;3.05;1.30;;;;;;;3.82;59.88;100546.09;8007327;28;20131;-66
2021/11/29 14:37:20;;;;;;;3.78;1.50;;;;;;;3.83;60.04;100544.34;8007141;28;20063;-66
2021/11/29 14:41:11;;;;;;;4.28;1.48;;;;;;;3.83;59.94;100546.94;8006205;28;20029;-66
2021/11/29 14:45:12;;;;;;;2.55;1.33;;;;;;;3.84;59.86;100556.44;8007535;28;20128;-66
2021/11/29 14:49:18;;;;;;;4.32;1.63;;;;;;;3.84;59.99;100568.56;8005970;28;20043;-66
2021/11/29 14:53:14;;;;;;;2.50;1.20;;;;;;;3.84;59.90;100574.63;8021069;28;20451;-66
2021/11/29 14:57:17;;;;;;;2.33;1.63;;;;;;;3.85;59.73;100578.06;8006819;28;20051;-66
2021/11/29 15:01:09;;;;;;;3.40;1.50;;;;;;;3.85;60.09;100584.13;8013861;28;20033;-66
2021/11/29 15:05:15;;;;;;;3.67;1.70;;;;;;;3.87;59.99;100600.47;8007073;28;20029;-66
2021/11/29 15:09:11;;;;;;;4.95;1.88;;;;;;;3.90;59.83;100594.31;8007246;28;20058;-66
2021/11/29 15:13:02;;;;;;;6.38;2.08;;;;;;;3.94;60.01;100608.88;8012333;28;20118;-66
2021/11/29 15:16:54;;;;;;;7.07;2.20;;;;;;;3.96;60.00;100609.63;8006426;28;20033;-66
2021/11/29 15:20:46;;;;;;;4.03;1.63;;;;;;;3.97;60.06;100612.19;8010434;28;20025;-66
2021/11/29 15:24:38;;;;;;;3.90;1.70;;;;;;;3.99;59.90;100606.88;8011097;28;20042;-66
2021/11/29 15:28:28;;;;;;;4.53;2.10;;;;;;;4.01;59.95;100612.88;8010776;28;20039;-66
2021/11/29 15:32:21;;;;;;;4.25;1.67;;;;;;;3.99;59.81;100614.69;8012980;28;20029;-66
2021/11/29 15:36:12;;;;;;;4.25;1.65;;;;;;;4.00;60.13;100627.63;8010643;28;20116;-66
2021/11/29 15:40:24;;;;;;;3.10;1.60;;;;;;;3.99;59.89;100631.13;8012765;28;20437;-66
2021/11/29 15:44:14;;;;;;;4.28;1.80;;;;;;;3.99;59.69;100633.72;8008326;28;20025;-66
2021/11/29 15:48:05;;;;;;;4.85;1.60;;;;;;;3.99;59.77;100633.72;8008161;28;20040;-66
2021/11/29 15:51:55;;;;;;;4.60;2.00;;;;;;;3.99;59.86;100638.94;8010160;28;20033;-66
2021/11/29 15:55:46;;;;;;;7.15;2.22;;;;;;;3.98;59.90;100650.25;8007882;28;20444;-66
2021/11/29 15:59:37;;;;;;;3.90;2.15;;;;;;;3.97;59.73;100653.75;8005384;28;21265;-66
2021/11/29 16:03:28;;;;;;;4.35;2.35;;;;;;;3.98;59.99;100654.59;8008174;28;20040;-66
2021/11/29 16:07:23;;;;;;;4.07;2.08;;;;;;;3.98;59.61;100665.00;8023893;28;20021;-67
2021/11/29 16:11:19;;;;;;;5.10;2.70;;;;;;;3.96;59.65;100659.84;8011294;28;20033;-66
2021/11/29 16:15:09;;;;;;;3.28;2.00;;;;;;;3.94;59.76;100666.91;8008567;28;20067;-67
2021/11/29 16:19:01;;;;;;;4.30;2.40;;;;;;;3.93;59.56;100677.34;8007637;28;20029;-67
2021/11/29 16:22:52;;;;;;;5.15;2.40;;;;;;;3.94;59.68;100681.63;8008443;28;20032;-66
2021/11/29 16:26:42;;;;;;;7.45;2.88;;;;;;;3.93;59.46;100679.94;8009532;28;20622;-67
2021/11/29 16:30:36;;;;;;;6.28;2.95;;;;;;;3.88;59.30;100689.66;8006271;28;20392;-66
2021/11/29 16:34:28;;;;;;;7.15;3.65;;;;;;;3.89;59.41;100692.22;8011297;28;20047;-66
2021/11/29 16:38:19;;;;;;;7.82;3.45;;;;;;;3.89;59.59;100693.97;8012286;28;20408;-67
2021/11/29 16:42:10;;;;;;;7.70;4.03;;;;;;;3.86;59.51;100694.94;8010855;28;20029;-67
2021/11/29 16:46:01;;;;;;;7.78;3.15;;;;;;;3.84;59.38;100699.34;8005796;28;20052;-67
2021/11/29 16:49:52;;;;;;;5.38;2.50;;;;;;;3.81;59.48;100707.28;8008294;28;20029;-66
2021/11/29 16:53:44;;;;;;;4.40;2.38;;;;;;;3.77;59.30;100698.78;8024427;28;20717;-66
2021/11/29 16:57:39;;;;;;;4.40;2.30;;;;;;;3.75;59.17;100705.75;8006986;28;20032;-67
2021/11/29 17:01:31;;;;;;;3.25;1.90;;;;;;;3.72;59.20;100702.44;8013155;28;20599;-66
2021/11/29 17:05:23;;;;;;;7.03;2.60;;;;;;;3.70;59.37;100704.25;8015172;28;20040;-66
2021/11/29 17:09:13;;;;;;;5.07;2.60;;;;;;;3.67;59.14;100705.22;8012272;28;20039;-66
2021/11/29 17:13:04;;;;;;;3.10;2.08;;;;;;;3.63;59.49;100703.66;8013293;28;20045;-67
2021/11/29 17:16:54;;;;;;;5.78;2.35;;;;;;;3.62;59.16;100707.16;8014972;28;20029;-66
2021/11/29 17:20:45;;;;;;;3.45;1.83;;;;;;;3.58;59.06;100707.34;8034792;28;20379;-66
2021/11/29 17:24:37;;;;;;;2.88;2.08;;;;;;;3.56;59.46;100711.75;8014756;28;20583;-66
2021/11/29 17:28:27;;;;;;;4.18;2.38;;;;;;;3.53;59.45;100715.31;8008967;28;20043;-66
2021/11/29 17:32:18;;;;;;;4.93;2.20;;;;;;;3.51;59.55;100716.28;8016965;28;20029;-67
2021/11/29 17:36:09;;;;;;;3.70;2.03;;;;;;;3.50;59.49;100712.84;8010453;28;20048;-66
2021/11/29 17:40:00;;;;;;;4.15;2.30;;;;;;;3.47;59.57;100722.50;8017939;28;20039;-66
2021/11/29 17:43:50;;;;;;;4.10;2.00;;;;;;;3.52;59.68;100736.16;8014250;28;20482;-66
2021/11/29 17:47:41;;;;;;;7.63;2.25;;;;;;;3.54;59.60;100744.72;8009594;28;20431;-66
2021/11/29 17:51:34;;;;;;;5.18;2.33;;;;;;;3.54;59.85;100734.34;8013785;28;20120;-66
2021/11/29 17:55:25;;;;;;;5.45;2.58;;;;;;;3.57;59.57;100742.84;8010337;28;20094;-66
2021/11/29 17:59:16;;;;;;;8.25;3.60;;;;;;;3.59;59.61;100748.00;8012148;28;20033;-66
2021/11/29 18:03:09;;;;;;;7.28;3.08;;;;;;;3.59;59.63;100754.03;8016014;28;20538;-67
2021/11/29 18:07:07;;;;;;;7.50;3.20;;;;;;;3.59;59.53;100759.25;8012987;28;20024;-66
2021/11/29 18:15:15;;;;;;;7.80;3.83;;;;;;;3.59;59.68;100767.03;8010659;28;20033;-67
2021/11/29 18:19:06;;;;;;;7.70;3.17;;;;;;;3.58;59.73;100757.53;8010286;28;20378;-66
2021/11/29 18:22:57;;;;;;;7.53;3.22;;;;;;;3.62;59.86;100761.72;8009045;28;20033;-66